Time;durP1;ratioP1;P1;durP2;ratioP2;P2;SDS_P1;SDS_P2;PMS_P1;PMS_P2;Temp;Humidity;BMP_temperature;BMP_pressure;BME280_temperature;BME280_humidity;BME280_pressure;Samples;Min_cycle;Max_cycle;Signal;HPM_P1;HPM_P2
2021/07/20 00:00:35;;;;;;;13.95;9.00;;;17.40;75.00;;;;;;5057331;28;20116;-75
2021/07/20 00:03:02;;;;;;;16.13;9.77;;;17.40;75.10;;;;;;5053270;28;20119;-75
2021/07/20 00:05:29;;;;;;;17.25;9.88;;;17.40;75.30;;;;;;5070072;28;20032;-75
2021/07/20 00:07:57;;;;;;;14.82;10.05;;;17.30;75.40;;;;;;5055274;28;20087;-75
2021/07/20 00:10:43;;;;;;;18.23;10.40;;;17.30;75.50;;;;;;5063386;28;20444;-75
2021/07/20 00:13:09;;;;;;;14.07;9.95;;;17.30;75.80;;;;;;5054339;28;20056;-75
2021/07/20 00:15:35;;;;;;;14.80;10.40;;;17.20;76.40;;;;;;5054384;28;20029;-75
2021/07/20 00:18:06;;;;;;;18.52;10.57;;;17.20;75.90;;;;;;5052935;28;20025;-75
2021/07/20 00:20:32;;;;;;;14.02;9.95;;;17.20;76.10;;;;;;5053923;28;20048;-75
2021/07/20 00:22:57;;;;;;;16.85;10.35;;;17.20;76.10;;;;;;5054289;28;20029;-75
2021/07/20 00:25:23;;;;;;;15.48;10.90;;;17.20;76.90;;;;;;5055938;28;20036;-75
2021/07/20 00:27:49;;;;;;;17.60;10.88;;;17.20;76.40;;;;;;5062542;28;20029;-75
2021/07/20 00:30:15;;;;;;;18.05;11.13;;;17.10;76.40;;;;;;5060875;28;20136;-75
2021/07/20 00:32:41;;;;;;;17.00;11.07;;;17.10;76.60;;;;;;5089638;28;20370;-75
2021/07/20 00:35:10;;;;;;;17.23;10.68;;;17.00;77.30;;;;;;5072032;28;20039;-75
2021/07/20 00:37:36;;;;;;;;;;;17.00;76.90;;;;;;5088299;28;20031;-75
2021/07/20 00:40:03;;;;;;;15.70;11.07;;;17.00;76.80;;;;;;5074021;28;19915;-75
2021/07/20 00:42:29;;;;;;;20.42;10.77;;;16.90;77.00;;;;;;5071782;28;20489;-75
2021/07/20 00:44:55;;;;;;;15.18;10.80;;;16.90;77.30;;;;;;5069239;28;20056;-75
2021/07/20 00:47:21;;;;;;;15.55;10.82;;;16.90;77.50;;;;;;5073811;28;20075;-75
2021/07/20 00:49:47;;;;;;;18.70;11.60;;;16.80;77.60;;;;;;5068879;28;20029;-75
2021/07/20 00:52:13;;;;;;;16.75;11.60;;;16.70;77.70;;;;;;5067912;28;20043;-75
2021/07/20 00:54:39;;;;;;;17.52;11.40;;;16.70;77.80;;;;;;5068408;28;20028;-75
2021/07/20 00:57:05;;;;;;;20.17;10.65;;;16.70;78.20;;;;;;5051832;28;20017;-75
2021/07/20 00:59:31;;;;;;;17.58;11.70;;;16.70;78.20;;;;;;5063294;28;20406;-75
2021/07/20 01:01:57;;;;;;;17.30;12.25;;;16.60;78.10;;;;;;5058567;28;20032;-75
2021/07/20 01:04:22;;;;;;;15.73;11.15;;;16.60;78.20;;;;;;5051682;28;20025;-75
2021/07/20 01:06:49;;;;;;;16.15;11.30;;;16.50;78.40;;;;;;5061359;28;20363;-75
2021/07/20 01:09:15;;;;;;;16.67;11.65;;;16.50;78.50;;;;;;5067900;28;20032;-74
2021/07/20 01:11:42;;;;;;;16.45;12.00;;;16.50;78.60;;;;;;5070309;28;20033;-75
2021/07/20 01:14:08;;;;;;;18.20;11.05;;;16.40;78.60;;;;;;5051879;28;20029;-75
2021/07/20 01:16:36;;;;;;;15.27;11.13;;;16.40;78.70;;;;;;5071547;28;20433;-75
2021/07/20 01:19:06;;;;;;;23.33;11.63;;;16.40;79.60;;;;;;5068210;28;20020;-75
2021/07/20 01:21:37;;;;;;;17.67;11.88;;;16.40;79.10;;;;;;5071680;28;20029;-75
2021/07/20 01:24:07;;;;;;;17.42;11.27;;;16.40;79.20;;;;;;5070283;28;20441;-75
2021/07/20 01:26:33;;;;;;;17.13;11.35;;;16.30;79.10;;;;;;5058814;28;20037;-75
2021/07/20 01:29:00;;;;;;;18.20;11.27;;;16.30;79.20;;;;;;5052071;28;20025;-75
2021/07/20 01:31:28;;;;;;;20.23;12.77;;;16.20;79.90;;;;;;5051904;28;20044;-75
2021/07/20 01:33:55;;;;;;;17.42;11.68;;;16.20;79.20;;;;;;5069199;28;20157;-75
2021/07/20 01:36:22;;;;;;;18.10;11.63;;;16.20;79.20;;;;;;5057516;28;20138;-75
2021/07/20 01:38:51;;;;;;;18.20;11.90;;;16.10;79.30;;;;;;5049036;28;20040;-75
2021/07/20 01:41:18;;;;;;;19.63;11.98;;;16.10;79.40;;;;;;5070052;28;20021;-75
2021/07/20 01:43:59;;;;;;;18.52;11.95;;;16.10;79.40;;;;;;5071709;28;20025;-75
2021/07/20 01:46:27;;;;;;;16.70;11.38;;;16.10;79.60;;;;;;5068933;28;20037;-75
2021/07/20 01:48:54;;;;;;;17.42;11.32;;;16.00;79.80;;;;;;5058126;28;20549;-75
2021/07/20 01:51:22;;;;;;;17.08;11.70;;;16.00;80.00;;;;;;5065458;28;20397;-75
2021/07/20 01:53:49;;;;;;;22.40;11.55;;;15.90;80.00;;;;;;5066382;28;20028;-75
2021/07/20 01:56:16;;;;;;;21.67;12.77;;;16.00;80.30;;;;;;5050975;28;20104;-75
2021/07/20 01:58:42;;;;;;;19.05;11.93;;;15.90;80.30;;;;;;5059973;28;20022;-75
2021/07/20 02:01:39;;;;;;;17.60;12.02;;;15.90;80.20;;;;;;5055443;28;20115;-75
2021/07/20 02:04:24;;;;;;;19.05;12.35;;;15.90;80.20;;;;;;5066788;28;20542;-75
2021/07/20 02:09:37;;;;;;;22.92;12.95;;;15.80;80.10;;;;;;5064386;28;20517;-75
2021/07/20 02:12:12;;;;;;;21.67;12.30;;;15.80;80.20;;;;;;5036803;28;20482;-75
2021/07/20 02:14:42;;;;;;;20.80;12.82;;;15.80;80.30;;;;;;5060522;28;20029;-75
2021/07/20 02:17:11;;;;;;;23.08;12.82;;;15.80;80.40;;;;;;5072787;28;20081;-75
2021/07/20 02:20:03;;;;;;;21.20;13.60;;;15.70;80.40;;;;;;5072072;28;20107;-75
2021/07/20 02:22:31;;;;;;;21.55;11.45;;;15.70;80.40;;;;;;5049694;28;20452;-75
2021/07/20 02:24:56;;;;;;;21.33;13.50;;;15.70;80.60;;;;;;5061199;28;20389;-75
2021/07/20 02:27:24;;;;;;;20.33;12.75;;;15.70;80.60;;;;;;5071150;28;20032;-75
2021/07/20 02:29:53;;;;;;;20.02;12.60;;;15.60;80.60;;;;;;5069820;28;20046;-75
2021/07/20 02:32:21;;;;;;;21.17;12.40;;;15.60;80.80;;;;;;5066921;28;20385;-75
2021/07/20 02:34:47;;;;;;;21.80;12.77;;;15.60;80.90;;;;;;5071775;28;20025;-74
2021/07/20 02:37:15;;;;;;;22.42;13.15;;;15.60;81.00;;;;;;5075376;28;20033;-75
2021/07/20 02:39:41;;;;;;;22.50;13.55;;;15.60;81.70;;;;;;5087705;28;20477;-75
2021/07/20 02:42:09;;;;;;;23.70;13.70;;;15.50;81.00;;;;;;5059568;28;20486;-75
2021/07/20 02:44:35;;;;;;;21.80;14.05;;;15.50;80.90;;;;;;5060310;28;20044;-75
2021/07/20 02:47:02;;;;;;;19.85;13.27;;;15.50;80.90;;;;;;5063345;28;20036;-75
2021/07/20 02:49:30;;;;;;;27.55;13.25;;;15.50;81.20;;;;;;5053558;28;20490;-75
2021/07/20 02:51:57;;;;;;;28.10;13.73;;;15.40;81.20;;;;;;5066524;28;20136;-75
2021/07/20 02:54:24;;;;;;;20.88;13.73;;;15.40;81.20;;;;;;5064959;28;20025;-75
2021/07/20 02:56:50;;;;;;;19.88;12.85;;;15.40;81.40;;;;;;5055930;28;20021;-75
2021/07/20 02:59:20;;;;;;;17.77;12.55;;;15.40;81.40;;;;;;5055935;28;20025;-75
2021/07/20 03:01:47;;;;;;;21.58;13.27;;;15.40;81.40;;;;;;5054160;28;20021;-75
2021/07/20 03:04:13;;;;;;;21.08;13.02;;;15.40;81.40;;;;;;5059993;28;20029;-75
2021/07/20 03:06:45;;;;;;;22.75;13.82;;;15.30;81.50;;;;;;5061902;28;20048;-75
2021/07/20 03:09:14;;;;;;;23.85;13.38;;;15.30;81.70;;;;;;5069391;28;20394;-75
2021/07/20 03:11:43;;;;;;;25.40;13.85;;;15.30;81.80;;;;;;5069649;28;20036;-75
2021/07/20 03:14:12;;;;;;;23.27;13.80;;;15.30;81.80;;;;;;5068586;28;20044;-75
2021/07/20 03:16:40;;;;;;;24.63;14.48;;;15.30;81.90;;;;;;5070289;28;20060;-75
2021/07/20 03:19:09;;;;;;;25.92;13.55;;;15.30;81.90;;;;;;5075499;28;20025;-75
2021/07/20 03:21:37;;;;;;;;;;;15.20;82.00;;;;;;5072557;28;20557;-75
2021/07/20 03:24:04;;;;;;;22.27;13.80;;;15.20;81.80;;;;;;5074727;28;19908;-75
2021/07/20 03:26:30;;;;;;;23.55;13.15;;;15.10;82.10;;;;;;5062902;28;20497;-75
2021/07/20 03:28:57;;;;;;;23.15;13.60;;;15.10;82.30;;;;;;5064272;28;20119;-75
2021/07/20 03:31:23;;;;;;;27.75;14.88;;;15.10;82.40;;;;;;5057211;28;20450;-75
2021/07/20 03:33:50;;;;;;;22.30;13.88;;;15.10;82.30;;;;;;5064240;28;20537;-75
2021/07/20 03:36:17;;;;;;;22.85;13.75;;;15.10;82.30;;;;;;5074694;28;20033;-75
2021/07/20 03:38:44;;;;;;;27.85;14.75;;;15.10;82.30;;;;;;5072687;28;20103;-75
2021/07/20 03:41:10;;;;;;;25.90;13.70;;;15.10;82.30;;;;;;5067632;28;20031;-75
2021/07/20 03:43:37;;;;;;;23.60;14.18;;;15.10;83.00;;;;;;5073556;28;20370;-75
2021/07/20 03:46:03;;;;;;;23.75;14.55;;;15.10;82.40;;;;;;5068332;28;20532;-74
2021/07/20 03:48:30;;;;;;;26.42;15.48;;;15.10;82.50;;;;;;5057617;28;20043;-74
2021/07/20 03:50:57;;;;;;;27.27;15.52;;;15.00;82.60;;;;;;5054946;28;20029;-75
2021/07/20 03:53:25;;;;;;;24.70;14.52;;;15.00;82.70;;;;;;5064114;28;20078;-75
2021/07/20 03:55:54;;;;;;;33.17;16.20;;;15.00;82.80;;;;;;5073634;28;20078;-75
2021/07/20 03:58:20;;;;;;;26.98;14.95;;;15.00;82.80;;;;;;5074891;28;20435;-75
2021/07/20 04:00:53;;;;;;;25.88;15.00;;;14.90;82.80;;;;;;5067785;28;20044;-75
2021/07/20 04:03:22;;;;;;;23.80;13.73;;;14.90;83.00;;;;;;5054656;28;20044;-75
2021/07/20 04:05:55;;;;;;;28.70;15.57;;;14.80;83.10;;;;;;5052446;28;20040;-75
2021/07/20 04:08:21;;;;;;;24.10;15.23;;;14.90;83.40;;;;;;5059839;28;20478;-75
2021/07/20 04:10:48;;;;;;;28.55;15.10;;;14.90;83.30;;;;;;5071719;28;20397;-75
2021/07/20 04:13:15;;;;;;;27.33;14.98;;;14.90;83.30;;;;;;5070726;28;20099;-75
2021/07/20 04:15:55;;;;;;;25.45;14.95;;;14.90;83.30;;;;;;5065273;28;20029;-75
2021/07/20 04:18:21;;;;;;;27.42;15.65;;;14.90;83.50;;;;;;5074325;28;20457;-75
2021/07/20 04:20:47;;;;;;;29.27;15.30;;;14.90;83.50;;;;;;5072718;28;20432;-75
2021/07/20 04:23:16;;;;;;;25.80;15.55;;;14.90;83.60;;;;;;5067729;28;20029;-75
2021/07/20 04:25:46;;;;;;;31.05;15.73;;;14.90;83.70;;;;;;5083445;28;20021;-75
2021/07/20 04:28:14;;;;;;;27.73;15.50;;;14.90;83.70;;;;;;5056319;28;20396;-75
2021/07/20 04:30:43;;;;;;;29.23;15.77;;;14.90;83.80;;;;;;5072395;28;20131;-74
2021/07/20 04:33:11;;;;;;;30.92;16.58;;;14.90;83.70;;;;;;5078108;28;20031;-74
2021/07/20 04:35:39;;;;;;;29.92;16.30;;;14.90;84.30;;;;;;5073796;28;20041;-74
2021/07/20 04:38:07;;;;;;;26.92;16.15;;;14.90;83.80;;;;;;5073997;28;20020;-75
2021/07/20 04:40:33;;;;;;;26.80;16.55;;;15.00;83.90;;;;;;5074279;28;20041;-74
2021/07/20 04:42:59;;;;;;;31.67;16.70;;;15.00;83.80;;;;;;5054131;28;20566;-75
2021/07/20 04:45:28;;;;;;;27.77;16.00;;;15.00;83.80;;;;;;5052668;28;20061;-75
2021/07/20 04:47:54;;;;;;;28.42;16.55;;;15.10;83.80;;;;;;5058238;28;20103;-75
2021/07/20 04:50:20;;;;;;;29.98;15.65;;;15.10;83.70;;;;;;5056424;28;20109;-75
2021/07/20 04:52:46;;;;;;;29.38;15.50;;;15.10;83.80;;;;;;5064821;28;20494;-75
2021/07/20 04:55:14;;;;;;;25.08;15.05;;;15.10;83.90;;;;;;5054771;28;20025;-75
2021/07/20 04:57:39;;;;;;;27.23;16.05;;;15.10;83.90;;;;;;5067798;28;20032;-75
2021/07/20 05:00:09;;;;;;;31.67;18.20;;;15.10;83.90;;;;;;5063777;28;20037;-75
2021/07/20 05:02:41;;;;;;;33.42;16.88;;;15.10;84.00;;;;;;5052407;28;20033;-75
2021/07/20 05:05:08;;;;;;;30.73;16.75;;;15.10;84.00;;;;;;5051785;28;20036;-74
2021/07/20 05:07:36;;;;;;;26.75;15.65;;;15.10;83.90;;;;;;5066159;28;20112;-75
2021/07/20 05:10:03;;;;;;;32.38;17.25;;;15.20;84.00;;;;;;5053592;28;20029;-75
2021/07/20 05:12:29;;;;;;;29.48;17.15;;;15.20;83.80;;;;;;5066825;28;20040;-75
2021/07/20 05:14:55;;;;;;;35.55;17.85;;;15.20;83.80;;;;;;5065395;28;20029;-75
2021/07/20 05:17:22;;;;;;;31.92;17.60;;;15.20;83.70;;;;;;5052650;28;20032;-75
2021/07/20 05:19:48;;;;;;;33.33;18.17;;;15.20;84.00;;;;;;5073191;28;20035;-75
2021/07/20 05:22:18;;;;;;;31.63;17.95;;;15.20;84.10;;;;;;5072870;28;20035;-75
2021/07/20 05:24:44;;;;;;;34.60;18.02;;;15.30;84.10;;;;;;5074338;28;20032;-75
2021/07/20 05:27:11;;;;;;;29.65;17.27;;;15.30;84.60;;;;;;5070197;28;20439;-75
2021/07/20 05:29:37;;;;;;;33.80;17.67;;;15.30;84.20;;;;;;5088778;28;20119;-75
2021/07/20 05:32:04;;;;;;;35.85;17.58;;;15.30;84.20;;;;;;5072909;28;20035;-75
2021/07/20 05:34:29;;;;;;;30.33;16.67;;;15.40;84.10;;;;;;5072751;28;20081;-75
2021/07/20 05:36:55;;;;;;;33.60;18.05;;;15.40;84.00;;;;;;5072507;28;20021;-75
2021/07/20 05:39:21;;;;;;;33.88;18.08;;;15.50;84.00;;;;;;5055082;28;20036;-75
2021/07/20 05:41:47;;;;;;;32.83;18.23;;;15.60;84.10;;;;;;5072888;28;20028;-75
2021/07/20 05:44:14;;;;;;;32.72;18.83;;;15.60;83.90;;;;;;5072252;28;20061;-75
2021/07/20 05:46:44;;;;;;;35.55;18.75;;;15.70;83.70;;;;;;5071311;28;20104;-76
2021/07/20 05:49:14;;;;;;;32.38;18.02;;;15.70;83.60;;;;;;5072742;28;20424;-75
2021/07/20 05:51:41;;;;;;;36.10;18.23;;;15.80;83.60;;;;;;5069501;28;20051;-75
2021/07/20 05:54:07;;;;;;;31.63;18.58;;;15.80;83.70;;;;;;5072351;28;20032;-75
2021/07/20 05:56:34;;;;;;;30.23;17.27;;;15.90;83.60;;;;;;5069722;28;20037;-75
2021/07/20 05:59:01;;;;;;;32.83;18.70;;;15.90;83.50;;;;;;5067154;28;20109;-76
2021/07/20 06:01:29;;;;;;;41.28;18.48;;;16.00;83.40;;;;;;5071207;28;20078;-78
2021/07/20 06:04:00;;;;;;;29.15;18.52;;;16.10;84.10;;;;;;5051330;28;20033;-77
2021/07/20 06:06:27;;;;;;;33.30;18.15;;;16.10;83.20;;;;;;5069626;28;20040;-77
2021/07/20 06:08:57;;;;;;;33.97;18.90;;;16.10;83.20;;;;;;5068470;28;20036;-78
2021/07/20 06:11:24;;;;;;;35.58;18.98;;;16.10;83.30;;;;;;5064237;28;20029;-78
2021/07/20 06:13:52;;;;;;;32.08;17.75;;;16.20;83.20;;;;;;5070501;28;20059;-78
2021/07/20 06:16:24;;;;;;;30.52;17.48;;;16.30;83.10;;;;;;5091680;28;20032;-77
2021/07/20 06:18:50;;;;;;;31.98;17.90;;;16.40;83.50;;;;;;5066218;28;20021;-77
2021/07/20 06:21:20;;;;;;;31.33;18.08;;;16.50;82.70;;;;;;5054855;28;20390;-77
2021/07/20 06:23:48;;;;;;;33.45;17.30;;;16.60;82.60;;;;;;5054724;28;20363;-77
2021/07/20 06:26:18;;;;;;;32.83;17.73;;;16.60;82.50;;;;;;5064686;28;20044;-77
2021/07/20 06:28:46;;;;;;;32.58;18.23;;;16.80;82.30;;;;;;5075075;28;20040;-77
2021/07/20 06:31:15;;;;;;;34.20;18.42;;;16.80;81.60;;;;;;5076522;28;20028;-77
2021/07/20 06:33:41;;;;;;;34.90;18.77;;;16.90;81.20;;;;;;5076204;28;20028;-77
2021/07/20 06:36:08;;;;;;;32.65;18.58;;;16.90;81.00;;;;;;5075212;28;20162;-77
2021/07/20 06:38:34;;;;;;;36.50;18.63;;;16.90;80.70;;;;;;5075000;28;20078;-77
2021/07/20 06:41:00;;;;;;;31.38;18.52;;;16.90;80.60;;;;;;5075674;28;20377;-77
2021/07/20 06:43:26;;;;;;;34.72;19.40;;;17.00;80.70;;;;;;5074828;28;20040;-77
2021/07/20 06:45:52;;;;;;;33.83;18.27;;;17.00;80.60;;;;;;5076071;28;20067;-77
2021/07/20 06:48:20;;;;;;;32.17;18.05;;;17.10;80.30;;;;;;5075944;28;20482;-77
2021/07/20 06:50:47;;;;;;;32.20;18.03;;;17.20;80.20;;;;;;5076027;28;20043;-77
2021/07/20 06:53:14;;;;;;;29.75;18.08;;;17.30;79.90;;;;;;5075750;28;20291;-77
2021/07/20 06:55:52;;;;;;;30.55;17.88;;;17.40;79.10;;;;;;5074255;28;20124;-77
2021/07/20 06:58:23;;;;;;;26.73;16.23;;;17.50;78.20;;;;;;5074385;28;20130;-77
2021/07/20 07:00:58;;;;;;;32.67;16.95;;;17.60;78.00;;;;;;5074425;28;20017;-77
2021/07/20 07:03:37;;;;;;;30.67;17.67;;;17.60;78.10;;;;;;5075736;28;20028;-77
2021/07/20 07:06:03;;;;;;;;;;;17.70;77.60;;;;;;5075992;28;20020;-77
2021/07/20 07:08:30;;;;;;;29.80;16.17;;;17.90;77.20;;;;;;5073721;28;19913;-77
2021/07/20 07:10:58;;;;;;;23.85;15.18;;;17.90;77.20;;;;;;5075168;28;20067;-77
2021/07/20 07:13:26;;;;;;;27.13;15.27;;;18.10;76.40;;;;;;5073639;28;20143;-78
2021/07/20 07:15:53;;;;;;;25.30;14.95;;;18.20;75.10;;;;;;5074034;28;20328;-78
2021/07/20 07:18:20;;;;;;;24.63;13.88;;;18.30;74.10;;;;;;5057547;28;20037;-78
2021/07/20 07:20:49;;;;;;;23.48;14.25;;;18.40;73.70;;;;;;5074240;28;20103;-77
2021/07/20 07:23:17;;;;;;;22.58;12.25;;;18.50;73.10;;;;;;5075472;28;20078;-77
2021/07/20 07:25:51;;;;;;;21.63;13.77;;;18.60;72.80;;;;;;5075138;28;20081;-77
2021/07/20 07:28:18;;;;;;;23.17;14.18;;;18.60;72.20;;;;;;5074926;28;20035;-77
2021/07/20 07:30:44;;;;;;;23.25;13.75;;;18.70;72.40;;;;;;5057433;28;20029;-77
2021/07/20 07:33:10;;;;;;;23.27;13.95;;;18.90;72.90;;;;;;5075218;28;20085;-77
2021/07/20 07:35:36;;;;;;;21.05;13.75;;;19.00;72.50;;;;;;5073981;28;20036;-77
2021/07/20 07:38:02;;;;;;;20.52;13.27;;;19.20;72.00;;;;;;5073886;28;20115;-77
2021/07/20 07:40:29;;;;;;;29.45;14.23;;;19.40;71.40;;;;;;5074950;28;20162;-77
2021/07/20 07:42:58;;;;;;;24.30;14.60;;;19.40;71.10;;;;;;5057252;28;20064;-77
2021/07/20 07:45:23;;;;;;;;;;;19.50;70.30;;;;;;5074965;28;20389;-77
2021/07/20 07:47:49;;;;;;;26.88;14.05;;;19.50;69.40;;;;;;5075084;28;19904;-77
2021/07/20 07:50:17;;;;;;;21.83;13.70;;;19.60;69.60;;;;;;5074948;28;20028;-77
2021/07/20 07:52:43;;;;;;;24.13;14.43;;;19.70;68.60;;;;;;5074765;28;20040;-78
2021/07/20 07:55:09;;;;;;;21.20;13.95;;;19.60;67.70;;;;;;5074707;28;20031;-77
2021/07/20 07:57:36;;;;;;;26.85;14.00;;;19.70;68.00;;;;;;5074901;28;20135;-77
2021/07/20 08:00:04;;;;;;;24.10;14.63;;;19.70;67.80;;;;;;5090544;28;20024;-77
2021/07/20 08:02:34;;;;;;;20.65;13.25;;;19.80;68.60;;;;;;5090532;28;20024;-77
2021/07/20 08:05:01;;;;;;;22.10;13.38;;;19.90;67.90;;;;;;5074821;28;20029;-77
2021/07/20 08:07:28;;;;;;;22.75;13.00;;;20.10;67.50;;;;;;5073178;28;20107;-77
2021/07/20 08:09:56;;;;;;;25.60;14.02;;;20.20;66.10;;;;;;5074647;28;20477;-77
2021/07/20 08:12:24;;;;;;;21.77;13.47;;;20.20;65.50;;;;;;5074785;28;20040;-77
2021/07/20 08:14:50;;;;;;;19.70;12.73;;;20.30;65.80;;;;;;5073336;28;20033;-77
2021/07/20 08:17:16;;;;;;;23.25;13.20;;;20.40;66.10;;;;;;5073334;28;20412;-77
2021/07/20 08:19:43;;;;;;;28.25;14.30;;;20.60;65.30;;;;;;5073239;28;20470;-78
2021/07/20 08:22:14;;;;;;;21.35;13.10;;;20.80;63.90;;;;;;5072972;28;20033;-78
2021/07/20 08:24:45;;;;;;;17.60;12.23;;;20.90;64.60;;;;;;5074289;28;20366;-78
2021/07/20 08:27:13;;;;;;;18.98;13.23;;;21.10;63.90;;;;;;5074120;28;20021;-78
2021/07/20 08:29:44;;;;;;;20.75;12.85;;;21.20;64.90;;;;;;5074327;28;20484;-78
2021/07/20 08:32:14;;;;;;;20.23;12.25;;;21.20;64.30;;;;;;5072688;28;20043;-78
2021/07/20 08:34:58;;;;;;;19.02;11.85;;;21.00;64.40;;;;;;5074004;28;20036;-78
2021/07/20 08:37:24;;;;;;;20.83;12.23;;;20.90;64.40;;;;;;5073828;28;20033;-78
2021/07/20 08:39:52;;;;;;;57.00;17.15;;;20.90;62.70;;;;;;5072659;28;20020;-78
2021/07/20 08:42:36;;;;;;;31.90;13.93;;;21.00;62.60;;;;;;5072140;28;20037;-78
2021/07/20 08:45:14;;;;;;;16.17;11.52;;;21.30;62.90;;;;;;5073086;28;20045;-78
2021/07/20 08:48:16;;;;;;;17.45;12.40;;;21.60;62.10;;;;;;5073462;28;20028;-78
2021/07/20 08:50:51;;;;;;;22.70;11.70;;;21.90;60.60;;;;;;5073465;28;20021;-78
2021/07/20 08:53:20;;;;;;;16.95;11.77;;;22.00;60.70;;;;;;5072083;28;20028;-78
2021/07/20 08:55:50;;;;;;;17.45;11.40;;;22.10;59.90;;;;;;5072788;28;20017;-78
2021/07/20 08:58:24;;;;;;;15.93;11.48;;;22.20;60.40;;;;;;5088802;28;20024;-78
2021/07/20 09:00:53;;;;;;;37.17;13.40;;;22.40;60.00;;;;;;5073129;28;20398;-78
2021/07/20 09:03:39;;;;;;;31.65;13.05;;;22.50;58.50;;;;;;5073404;28;20025;-78
2021/07/20 09:06:07;;;;;;;50.50;14.55;;;22.50;58.10;;;;;;5072339;28;20046;-78
2021/07/20 09:08:34;;;;;;;24.00;12.50;;;22.50;57.30;;;;;;5073442;28;20025;-78
2021/07/20 09:11:04;;;;;;;17.48;11.27;;;22.60;58.10;;;;;;5073166;28;20032;-78
2021/07/20 09:13:34;;;;;;;16.52;10.27;;;22.70;57.70;;;;;;5073158;28;20063;-78
2021/07/20 09:16:32;;;;;;;16.13;10.70;;;22.80;57.20;;;;;;5073416;28;20036;-78
2021/07/20 09:19:14;;;;;;;15.38;10.27;;;23.00;58.00;;;;;;5065535;28;20025;-78
2021/07/20 09:21:45;;;;;;;15.57;10.93;;;23.30;57.60;;;;;;5073315;28;20087;-78
2021/07/20 09:24:28;;;;;;;21.50;11.25;;;23.50;56.20;;;;;;5053430;28;20029;-78
2021/07/20 09:27:03;;;;;;;17.58;10.73;;;23.60;54.20;;;;;;5053025;28;20025;-78
2021/07/20 09:29:30;;;;;;;17.27;10.85;;;23.40;55.30;;;;;;5068112;28;20363;-78
2021/07/20 09:32:13;;;;;;;19.20;11.48;;;23.40;55.90;;;;;;5072596;28;20028;-78
2021/07/20 09:35:10;;;;;;;16.77;10.07;;;23.50;55.80;;;;;;5072494;28;20450;-78
2021/07/20 09:38:18;;;;;;;13.70;9.75;;;23.30;56.70;;;;;;5072218;28;20068;-78
2021/07/20 09:41:26;;;;;;;16.00;10.63;;;23.20;55.60;;;;;;5071327;28;20435;-78
2021/07/20 09:43:54;;;;;;;17.13;10.82;;;23.30;55.30;;;;;;5067512;28;20035;-78
2021/07/20 09:46:39;;;;;;;17.92;10.43;;;23.20;55.00;;;;;;5072898;28;20048;-78
2021/07/20 09:49:16;;;;;;;15.15;10.40;;;23.20;55.90;;;;;;5072415;28;20036;-78
2021/07/20 09:51:42;;;;;;;17.17;9.43;;;23.00;55.00;;;;;;5072905;28;20035;-78
2021/07/20 09:54:50;;;;;;;14.65;10.98;;;23.00;55.90;;;;;;5072938;28;20032;-78
2021/07/20 09:57:54;;;;;;;15.25;10.80;;;23.10;54.30;;;;;;5072810;28;20051;-78
2021/07/20 10:00:27;;;;;;;15.70;10.15;;;23.10;54.70;;;;;;5072979;28;20029;-78
2021/07/20 10:03:19;;;;;;;14.70;9.40;;;23.30;54.50;;;;;;5072900;28;20069;-78
2021/07/20 10:06:01;;;;;;;18.00;9.98;;;23.60;55.10;;;;;;5072949;28;20032;-78
2021/07/20 10:08:56;;;;;;;17.75;10.52;;;23.80;53.90;;;;;;5072756;28;20432;-78
2021/07/20 10:11:34;;;;;;;14.32;10.15;;;23.70;51.60;;;;;;5071546;28;20494;-78
2021/07/20 10:14:27;;;;;;;18.80;10.88;;;23.50;52.10;;;;;;5072647;28;20429;-78
2021/07/20 10:17:20;;;;;;;17.02;10.27;;;23.40;53.30;;;;;;5077194;28;20119;-78
2021/07/20 10:19:50;;;;;;;17.52;10.18;;;23.60;54.40;;;;;;5070557;28;20036;-78
2021/07/20 10:22:34;;;;;;;20.98;10.73;;;23.80;54.60;;;;;;5087722;28;20462;-78
2021/07/20 10:25:05;;;;;;;25.80;10.48;;;23.80;53.30;;;;;;5072575;28;20036;-78
2021/07/20 10:27:38;;;;;;;18.35;10.65;;;23.90;52.20;;;;;;5077148;28;20048;-78
2021/07/20 10:30:12;;;;;;;16.35;10.75;;;23.80;51.80;;;;;;5072397;28;20584;-78
2021/07/20 10:32:38;;;;;;;17.60;10.50;;;23.70;51.60;;;;;;5071133;28;20032;-78
2021/07/20 10:35:13;;;;;;;14.15;9.90;;;23.70;53.00;;;;;;5088062;28;20025;-78
2021/07/20 10:37:45;;;;;;;12.82;9.60;;;23.80;52.70;;;;;;5071402;28;20056;-78
2021/07/20 10:40:15;;;;;;;14.18;9.40;;;23.90;52.70;;;;;;5059697;28;20013;-78
2021/07/20 10:43:00;;;;;;;12.40;8.93;;;24.10;53.80;;;;;;5071316;28;20074;-78
2021/07/20 10:45:32;;;;;;;15.10;10.32;;;24.20;53.20;;;;;;5072168;28;20425;-78
2021/07/20 10:48:10;;;;;;;13.80;8.73;;;24.30;52.30;;;;;;5072228;28;20048;-78
2021/07/20 10:50:53;;;;;;;14.07;8.50;;;24.30;52.60;;;;;;5072252;28;20027;-78
2021/07/20 10:53:33;;;;;;;19.15;10.52;;;24.40;50.80;;;;;;5070964;28;20020;-78
2021/07/20 10:56:27;;;;;;;11.98;9.77;;;24.30;50.30;;;;;;5072179;28;20024;-78
2021/07/20 10:59:29;;;;;;;13.93;9.60;;;24.20;51.40;;;;;;5070469;28;20029;-78
2021/07/20 11:02:01;;;;;;;14.00;9.85;;;24.20;50.90;;;;;;5071722;28;20050;-78
2021/07/20 11:04:54;;;;;;;14.35;9.60;;;24.30;50.80;;;;;;5074030;28;20028;-78
2021/07/20 11:07:35;;;;;;;12.50;9.77;;;24.30;52.10;;;;;;5075952;28;20029;-80
2021/07/20 11:10:23;;;;;;;14.48;10.00;;;24.40;51.80;;;;;;5076569;28;20560;-80
2021/07/20 11:12:54;;;;;;;16.77;10.52;;;24.30;50.90;;;;;;5076109;28;20127;-81
2021/07/20 11:15:21;;;;;;;14.15;10.18;;;24.10;51.60;;;;;;5076211;28;20021;-81
2021/07/20 11:17:49;;;;;;;15.02;10.63;;;24.10;51.50;;;;;;5075659;28;20035;-80
2021/07/20 11:20:20;;;;;;;15.60;10.60;;;24.10;52.80;;;;;;5076042;28;20024;-80
2021/07/20 11:22:47;;;;;;;15.48;9.80;;;24.10;51.70;;;;;;5074697;28;20063;-81
2021/07/20 11:25:15;;;;;;;14.80;9.65;;;24.30;52.60;;;;;;5075971;28;20389;-81
2021/07/20 11:27:44;;;;;;;14.60;10.00;;;24.50;52.70;;;;;;5074608;28;20125;-81
2021/07/20 11:30:18;;;;;;;14.82;10.32;;;24.60;52.30;;;;;;5076032;28;20465;-81
2021/07/20 11:33:27;;;;;;;15.70;10.80;;;24.60;51.30;;;;;;5074493;28;20040;-81
2021/07/20 11:35:56;;;;;;;15.40;10.27;;;24.60;51.10;;;;;;5075256;28;20033;-81
2021/07/20 11:38:26;;;;;;;12.88;10.32;;;24.50;50.50;;;;;;5090968;28;20062;-80
2021/07/20 11:41:28;;;;;;;17.90;9.63;;;24.40;52.00;;;;;;5074892;28;20122;-81
2021/07/20 11:44:04;;;;;;;12.07;9.50;;;24.40;52.40;;;;;;5074894;28;20020;-81
2021/07/20 11:46:47;;;;;;;16.42;9.50;;;24.50;53.20;;;;;;5069399;28;20036;-80
2021/07/20 11:49:24;;;;;;;14.55;9.65;;;24.40;54.30;;;;;;5060475;28;20107;-81
2021/07/20 11:51:55;;;;;;;16.58;10.75;;;24.40;52.20;;;;;;5070122;28;20616;-81
2021/07/20 11:54:35;;;;;;;14.25;9.75;;;24.40;51.80;;;;;;5061532;28;20036;-80
2021/07/20 11:57:19;;;;;;;14.30;10.05;;;24.40;52.20;;;;;;5070752;28;20355;-81
2021/07/20 12:00:14;;;;;;;13.45;9.82;;;24.60;52.00;;;;;;5054019;28;20075;-81
2021/07/20 12:03:17;;;;;;;16.58;9.65;;;24.80;51.70;;;;;;5053873;28;20075;-78
2021/07/20 12:06:16;;;;;;;18.20;10.23;;;25.00;52.10;;;;;;5072482;28;20489;-81
2021/07/20 12:09:00;;;;;;;19.45;10.60;;;25.20;52.30;;;;;;5074933;28;20041;-79
2021/07/20 12:11:30;;;;;;;11.57;9.45;;;25.20;50.80;;;;;;5062125;28;20033;-82
2021/07/20 12:14:05;;;;;;;12.27;9.52;;;25.20;49.90;;;;;;5053694;28;20029;-82
2021/07/20 12:16:32;;;;;;;13.25;9.82;;;25.30;51.30;;;;;;5053743;28;20546;-82
2021/07/20 12:18:59;;;;;;;16.02;9.77;;;25.50;50.70;;;;;;5053735;28;20025;-83
2021/07/20 12:21:26;;;;;;;18.08;10.18;;;25.60;50.80;;;;;;5053622;28;20021;-83
2021/07/20 12:23:56;;;;;;;13.32;9.77;;;25.70;48.90;;;;;;5053598;28;20393;-83
2021/07/20 12:26:24;;;;;;;14.88;10.98;;;25.60;48.60;;;;;;5054807;28;20170;-83
2021/07/20 12:28:50;;;;;;;15.50;9.90;;;25.60;48.90;;;;;;5054756;28;20098;-83
2021/07/20 12:31:16;;;;;;;13.70;9.90;;;25.60;48.50;;;;;;5053402;28;20064;-83
2021/07/20 12:33:47;;;;;;;15.73;9.55;;;25.60;48.30;;;;;;5053285;28;20393;-83
2021/07/20 12:36:14;;;;;;;14.57;9.57;;;25.60;48.20;;;;;;5053242;28;20036;-82
2021/07/20 12:38:41;;;;;;;12.10;9.68;;;25.60;48.90;;;;;;5054518;28;20025;-83
2021/07/20 12:41:08;;;;;;;16.80;11.45;;;25.60;48.10;;;;;;5053145;28;20071;-83
2021/07/20 12:43:38;;;;;;;12.52;10.05;;;25.60;48.30;;;;;;5053170;28;20037;-83
2021/07/20 12:46:16;;;;;;;17.92;9.93;;;25.60;47.70;;;;;;5054225;28;20048;-83
2021/07/20 12:48:50;;;;;;;16.80;11.55;;;25.50;48.40;;;;;;5054310;28;20064;-83
2021/07/20 12:51:17;;;;;;;13.43;10.43;;;25.60;48.50;;;;;;5053016;28;20055;-81
2021/07/20 12:53:53;;;;;;;12.47;9.63;;;25.70;48.30;;;;;;5052820;28;20393;-81